AddedLatest Added eBooks:

  1. 2019-04-06Miracle Beach (1992) BluRay 720p -YIFY
  2. 2019-04-06Albion The Enchanted Stallion 2016 1080p BluRay H264 AAC-RARBG
  3. 2019-04-06Anti-Social (2015) BluRay 720p -YIFY
  4. 2019-04-06Golden Winter 2012 1080p BluRay x264 VETO
  5. 2019-04-06Scavengers 2013 720p BluRay H264 AAC-RARBG
  6. 2019-04-06Pound Of Flesh 2010 720p BluRay H264 AAC-RARBG
  7. 2019-04-06Prospect 2018 1080p BluRay x264 VETO
  8. 2019-04-06Pound Of Flesh 2010 1080p BluRay x264 UNTOUCHABLES
  9. 2019-04-06Cherry Bomb 2011 1080p BluRay H264 AAC RARBG
  10. 2019-04-06A Dogs Way Home 2019 1080p BluRay DD5 1 x264-CMRG
  11. 2019-04-06Abandoned Mine 2012 1080p BluRay H264 AAC-RARBG
  12. 2019-04-06Arthur And Merlin 2015 720p BluRay H264 AAC-RARBG
  13. 2019-04-06Belle du Seigneur 2012 1080p BluRay H264 AAC-RARBG
  14. 2019-04-06Black Roses 1988 1080p BluRay H264 AAC-RARBG
  15. 2019-04-06Berlin I Love You 2019 1080p BluRay x264-ROVERS
  16. 2019-04-06Escape 2012 720p BluRay H264 AAC-RARBG
  17. 2019-04-06Everyone Dies Alone 1976 DUBBED 720p BluRay H264 AAC-RARBG
  18. 2019-04-06Even Lambs Have Teeth 2015 1080p BluRay H264 AAC-RARBG
  19. 2019-04-06Ghost In The Shell (1995) BluRay 720p -YIFY
  20. 2019-04-06Fist 2 Fist 2011 1080p BluRay x264-VETO
  21. 2019-04-06Golden Winter 2012 720p BluRay H264 AAC-RARBG
  22. 2019-04-06Hanalei Bay 2018 JAPANESE 720p BluRay x264-WiKi
  23. 2019-04-06Glass 2019 1080p BluRay x264-SPARKS
  24. 2019-04-06Hotel Noir 2012 1080p BluRay H264 AAC-RARBG
  25. 2019-04-06I Will Follow You Into The Dark 2012 1080p BluRay H264 AAC-RARBG
  26. 2019-04-06Immaculate Conception 1992 720p BluRay x264-SPECTACLE
  27. 2019-04-06Investigating Sex 2001 1080p BluRay H264 AAC-RARBG
  28. 2019-04-06Kevin Hart Irresponsible 2019 720p WEB X264-AMRAP
  29. 2019-04-06Legendary Amazons (2011) BluRay 720p -YIFY
  30. 2019-04-06On The Basis Of Sex (2018) BluRay 720p -YIFY
  31. 2019-04-06On The Basis Of Sex (2018) BluRay 1080p -YIFY
  32. 2019-04-06On the Basis of Sex 2018 720p BluRay x264-GECKOS
  33. 2019-04-06Planeta Singli 2 (2018) BluRay 1080p -YIFY
  34. 2019-04-06Prospect 2018 720p BluRay H264 AAC-RARBG
  35. 2019-04-06Risto Rappaaja Ja Yohaukka 2016 FINNISH 1080p BluRay H264 AAC-VXT
  36. 2019-04-06Roadkill 2011 720p BluRay H264 AAC-RARBG
  37. 2019-04-06Prospect 2018 720p BluRay x264-VETO
  38. 2019-04-06The Guillotines 2012 CHINESE 720p BluRay H264 AAC-VXT
  39. 2019-04-06The Guillotines 2012 CHINESE 1080p BluRay H264 AAC-VXT
  40. 2019-04-06The Scarehouse 2014 1080p BluRay H264 AAC-RARBG
  41. 2019-04-07The Summer Of Massacre 2012 1080p BluRay H264 AAC-RARBG
  42. 2019-04-07The Thief of Bagdad 1940 720p BluRay H264 AAC-RARBG
  43. 2019-04-07Zero Dark Dirty 2013 1080p BluRay H264 AAC-RARBG
  44. 2019-04-07I Will Follow You Into The Dark 2012 720p BluRay H264 AAC-RARBG
  45. 2019-04-07IFR Asia - April 06, 2019
  46. 2019-04-07Roadkill 2011 1080p BluRay H264 AAC-RARBG
  47. 2019-04-07Sole Survivor 1970 1080p BluRay H264 AAC-RARBG
  48. 2019-04-07Macworld Australia - April 2019
  49. 2019-04-07Swimming Pool (2003) BluRay 720p -YIFY
  50. 2019-04-07The Omen (2006) BluRay 720p -YIFY
  51. 2019-04-07Hot Rod - June 2019
  52. 2019-04-07Trail South Africa - April/May/June 2019
  53. 2019-04-07In Touch Weekly - April 15, 2019
  54. 2019-04-07Star Magazine USA - April 15, 2019
  55. 2019-04-07The Magic Thief series by Sarah Prineas
  56. 2019-04-07Stretch Therapy: A Comprehensive Guide to Individual and Assisted Stretching (AZW3)
  57. 2019-04-07The Triumph Speed Twin & Thunderbird Bible: All 5T 498cc & 6T 649cc models 1938 to 1966
  58. 2019-04-07Oracle BPM Suite 12c Modeling Patterns
  59. 2019-04-07The Language of Yoga: Complete A to Y Guide to Asana Names, Sanskrit Terms, and Chants
  60. 2019-04-07New Zealand's First World War Heritage (First World War Centenary History series)
  61. 2019-04-07Legal Aspects Around Satellite Constellations
  62. 2019-04-07Self-Healing Nanotextured Vascular Engineering Materials
  63. 2019-04-07Parallel Programming and Optimization with Intel Xeon Phi Coprocessors
  64. 2019-04-07Hunters Bride 2010 1080p BluRay x264-SADPANDA
  65. 2019-04-07Environmental Modeling: Using MATLAB, 1st Edition
  66. 2019-04-07Raw: 150 dairy-free and Gluten-free Vegan Recipes
  67. 2019-04-07Engineering Analysis: Interactive Methods and Programs with FORTRAN, QuickBASIC, MATLAB, and Mathematica
  68. 2019-04-07Deliciously Ella: Awesome ingredients, incredible food that you and your body will love
  69. 2019-04-07The Complete U.S. Army Survival Guide to Medical Skills, Tactics, and Techniques
  70. 2019-04-07Embedded Control Systems in C/C
  71. 2019-04-07Electronic Devices and Amplifier Circuits, 3rd Edition
  72. 2019-04-07Introduction to Social Media for Business
  73. 2019-04-07Elementary Mathematical and Computational Tools for Electrical and Computer Engineers Using MATLAB, 1st Edition
  74. 2019-04-07Digital Signal and Image Processing Using MATLAB, 1st Edition
  75. 2019-04-07Investopedia Academy - Binary Options
  76. 2019-04-07Farm Collector - May 2019
  77. 2019-04-073Ds Max Game Modeling: Complete 3D Modeling in 3Ds Max
  78. 2019-04-07JazzTimes - May 2019
  79. 2019-04-07This Old House - May/June 2019
  80. 2019-04-07Gluten-Free Living - June 2019
  81. 2019-04-07Investopedia Academy - Advanced Options Trading
  82. 2019-04-07Highlights Hello - May 2019
  83. 2019-04-07Rolli Ja Kaikkien Aikojen Salaisuus 2016 1080p BluRay x264-FiCO
  84. 2019-04-07Mustang Monthly - Vol.42 No.05, 2019
  85. 2019-04-07Investools - The 7 Cash Flow Investing Strategies
  86. 2019-04-07Closer USA - April 15, 2019
  87. 2019-04-07Official Xbox Magazine USA - May 2019
  88. 2019-04-07Designlines - Issue 2, 2019
  89. 2019-04-07Kiwi Trail Runner - April/May 2019
  90. 2019-04-07We Die Young 2019 BDRip XviD AC3-EVO
  91. 2019-04-07Dumbo 2019 HDCAM v2 Blurred-C4S
  92. 2019-04-07Shazam 2019 720p HDCAM x264 [MW]
  93. 2019-04-07Unplanned 2019 HDCAM Blurred-C4S
  94. 2019-04-07St Martins Lane 1938 1080p BluRay x264-SADPANDA
  95. 2019-04-07The Beach Bum 2019 HDCAM-C4S
  96. 2019-04-07MasterClass - David Lynch Teaches Creativity and Film
  97. 2019-04-07MasterClass - Natalie Portman Teaches Acting
  98. 2019-04-07IBD Chart School - Workbook Full 527 Pages
  99. 2019-04-07Who Gets the Dog 2016 1080p BluRay x264 DD5 1-FGT

More eBooks ...

40523 pages, 4052221 eBooks in total, list all pages->

Search free ebooks in ebookee.com!
Back to Top